sensor_id;sensor_type;location;lat;lon;timestamp;P1;durP1;ratioP1;P2;durP2;ratioP2
66727;SDS011;53641;44.274;19.890;2022-10-31T00:00:13;19.38;;;10.77;;
66727;SDS011;53641;44.274;19.890;2022-10-31T00:02:39;20.67;;;11.73;;
66727;SDS011;53641;44.274;19.890;2022-10-31T00:05:05;26.65;;;13.00;;
66727;SDS011;53641;44.274;19.890;2022-10-31T00:07:34;22.17;;;12.90;;
66727;SDS011;53641;44.274;19.890;2022-10-31T00:10:00;22.27;;;12.13;;
66727;SDS011;53641;44.274;19.890;2022-10-31T00:12:26;21.30;;;12.15;;
66727;SDS011;53641;44.274;19.890;2022-10-31T00:14:54;17.23;;;10.60;;
66727;SDS011;53641;44.274;19.890;2022-10-31T00:17:20;17.42;;;10.80;;
66727;SDS011;53641;44.274;19.890;2022-10-31T00:19:48;16.98;;;10.45;;
66727;SDS011;53641;44.274;19.890;2022-10-31T00:22:14;18.95;;;10.85;;
66727;SDS011;53641;44.274;19.890;2022-10-31T00:24:43;16.58;;;9.98;;
66727;SDS011;53641;44.274;19.890;2022-10-31T00:27:17;16.40;;;10.00;;
66727;SDS011;53641;44.274;19.890;2022-10-31T00:29:54;19.77;;;11.63;;
66727;SDS011;53641;44.274;19.890;2022-10-31T00:32:20;22.10;;;10.43;;
66727;SDS011;53641;44.274;19.890;2022-10-31T00:34:48;18.35;;;9.45;;
66727;SDS011;53641;44.274;19.890;2022-10-31T00:37:20;15.55;;;10.25;;
66727;SDS011;53641;44.274;19.890;2022-10-31T00:39:46;15.85;;;9.82;;
66727;SDS011;53641;44.274;19.890;2022-10-31T00:42:15;16.45;;;9.90;;
66727;SDS011;53641;44.274;19.890;2022-10-31T00:44:41;17.35;;;10.10;;
66727;SDS011;53641;44.274;19.890;2022-10-31T00:47:07;20.30;;;10.18;;
66727;SDS011;53641;44.274;19.890;2022-10-31T00:49:33;15.10;;;9.45;;
66727;SDS011;53641;44.274;19.890;2022-10-31T00:51:58;12.07;;;8.25;;
66727;SDS011;53641;44.274;19.890;2022-10-31T00:54:35;18.40;;;9.40;;
66727;SDS011;53641;44.274;19.890;2022-10-31T00:57:01;18.00;;;8.50;;
66727;SDS011;53641;44.274;19.890;2022-10-31T00:59:31;11.60;;;8.30;;
66727;SDS011;53641;44.274;19.890;2022-10-31T01:02:08;12.02;;;7.90;;
66727;SDS011;53641;44.274;19.890;2022-10-31T01:04:41;12.68;;;7.65;;
66727;SDS011;53641;44.274;19.890;2022-10-31T01:07:09;12.70;;;8.05;;
66727;SDS011;53641;44.274;19.890;2022-10-31T01:09:39;10.40;;;7.18;;
66727;SDS011;53641;44.274;19.890;2022-10-31T01:12:07;12.57;;;7.22;;
66727;SDS011;53641;44.274;19.890;2022-10-31T01:14:36;12.15;;;7.82;;
66727;SDS011;53641;44.274;19.890;2022-10-31T01:17:10;15.20;;;9.10;;
66727;SDS011;53641;44.274;19.890;2022-10-31T01:19:39;12.75;;;8.70;;
66727;SDS011;53641;44.274;19.890;2022-10-31T01:22:05;17.13;;;8.65;;
66727;SDS011;53641;44.274;19.890;2022-10-31T01:24:31;13.88;;;8.75;;
66727;SDS011;53641;44.274;19.890;2022-10-31T01:26:59;12.18;;;7.43;;
66727;SDS011;53641;44.274;19.890;2022-10-31T01:29:25;16.50;;;7.78;;
66727;SDS011;53641;44.274;19.890;2022-10-31T01:31:51;16.42;;;8.00;;
66727;SDS011;53641;44.274;19.890;2022-10-31T01:34:20;11.88;;;7.70;;
66727;SDS011;53641;44.274;19.890;2022-10-31T01:36:46;13.38;;;7.25;;
66727;SDS011;53641;44.274;19.890;2022-10-31T01:39:16;11.48;;;7.22;;
66727;SDS011;53641;44.274;19.890;2022-10-31T01:41:45;12.38;;;7.53;;
66727;SDS011;53641;44.274;19.890;2022-10-31T01:47:20;11.57;;;7.50;;
66727;SDS011;53641;44.274;19.890;2022-10-31T01:49:53;15.70;;;8.10;;
66727;SDS011;53641;44.274;19.890;2022-10-31T01:52:33;18.65;;;9.02;;
66727;SDS011;53641;44.274;19.890;2022-10-31T01:55:05;13.93;;;9.18;;
66727;SDS011;53641;44.274;19.890;2022-10-31T01:57:37;15.48;;;10.18;;
66727;SDS011;53641;44.274;19.890;2022-10-31T02:00:08;12.25;;;9.27;;
66727;SDS011;53641;44.274;19.890;2022-10-31T02:02:35;17.97;;;9.90;;
66727;SDS011;53641;44.274;19.890;2022-10-31T02:05:02;15.35;;;8.55;;
66727;SDS011;53641;44.274;19.890;2022-10-31T02:07:39;16.17;;;9.23;;
66727;SDS011;53641;44.274;19.890;2022-10-31T02:10:08;12.38;;;8.65;;
66727;SDS011;53641;44.274;19.890;2022-10-31T02:12:34;12.65;;;8.07;;
66727;SDS011;53641;44.274;19.890;2022-10-31T02:15:04;15.55;;;10.02;;
66727;SDS011;53641;44.274;19.890;2022-10-31T02:17:30;14.73;;;9.50;;
66727;SDS011;53641;44.274;19.890;2022-10-31T02:20:10;15.05;;;9.07;;
66727;SDS011;53641;44.274;19.890;2022-10-31T02:24:00;15.82;;;9.85;;
66727;SDS011;53641;44.274;19.890;2022-10-31T02:30:14;15.15;;;9.55;;
66727;SDS011;53641;44.274;19.890;2022-10-31T02:32:12;12.60;;;8.77;;
66727;SDS011;53641;44.274;19.890;2022-10-31T02:34:56;18.98;;;10.13;;
66727;SDS011;53641;44.274;19.890;2022-10-31T02:37:34;16.77;;;10.73;;
66727;SDS011;53641;44.274;19.890;2022-10-31T02:40:10;23.20;;;10.90;;
66727;SDS011;53641;44.274;19.890;2022-10-31T02:43:05;16.92;;;10.65;;
66727;SDS011;53641;44.274;19.890;2022-10-31T02:45:56;20.30;;;11.15;;
66727;SDS011;53641;44.274;19.890;2022-10-31T02:48:31;22.25;;;11.95;;
66727;SDS011;53641;44.274;19.890;2022-10-31T02:51:02;20.85;;;12.77;;
66727;SDS011;53641;44.274;19.890;2022-10-31T02:53:36;21.08;;;12.43;;
66727;SDS011;53641;44.274;19.890;2022-10-31T02:56:09;18.30;;;10.13;;
66727;SDS011;53641;44.274;19.890;2022-10-31T02:58:40;16.17;;;9.70;;
66727;SDS011;53641;44.274;19.890;2022-10-31T03:01:24;16.42;;;10.38;;
66727;SDS011;53641;44.274;19.890;2022-10-31T03:06:57;19.73;;;10.73;;
66727;SDS011;53641;44.274;19.890;2022-10-31T03:09:33;14.50;;;9.68;;
66727;SDS011;53641;44.274;19.890;2022-10-31T03:12:07;15.18;;;9.18;;
66727;SDS011;53641;44.274;19.890;2022-10-31T03:14:40;17.40;;;10.02;;
66727;SDS011;53641;44.274;19.890;2022-10-31T03:17:10;13.13;;;9.13;;
66727;SDS011;53641;44.274;19.890;2022-10-31T03:19:43;18.20;;;9.20;;
66727;SDS011;53641;44.274;19.890;2022-10-31T03:22:25;12.40;;;8.27;;
66727;SDS011;53641;44.274;19.890;2022-10-31T03:24:54;14.30;;;8.80;;
66727;SDS011;53641;44.274;19.890;2022-10-31T03:27:30;16.00;;;8.18;;
66727;SDS011;53641;44.274;19.890;2022-10-31T03:30:00;9.85;;;6.90;;
66727;SDS011;53641;44.274;19.890;2022-10-31T03:32:41;10.77;;;6.63;;
66727;SDS011;53641;44.274;19.890;2022-10-31T03:35:10;9.15;;;6.70;;
66727;SDS011;53641;44.274;19.890;2022-10-31T03:37:43;12.23;;;7.38;;
66727;SDS011;53641;44.274;19.890;2022-10-31T03:40:10;14.40;;;8.88;;
66727;SDS011;53641;44.274;19.890;2022-10-31T03:42:40;16.92;;;9.00;;
66727;SDS011;53641;44.274;19.890;2022-10-31T03:45:17;15.32;;;9.63;;
66727;SDS011;53641;44.274;19.890;2022-10-31T03:47:50;15.55;;;8.82;;
66727;SDS011;53641;44.274;19.890;2022-10-31T03:50:18;16.92;;;9.30;;
66727;SDS011;53641;44.274;19.890;2022-10-31T03:52:50;13.77;;;8.93;;
66727;SDS011;53641;44.274;19.890;2022-10-31T03:55:31;15.85;;;8.43;;
66727;SDS011;53641;44.274;19.890;2022-10-31T03:58:12;13.18;;;7.97;;
66727;SDS011;53641;44.274;19.890;2022-10-31T04:00:45;16.27;;;8.20;;
66727;SDS011;53641;44.274;19.890;2022-10-31T04:03:19;15.30;;;8.77;;
66727;SDS011;53641;44.274;19.890;2022-10-31T04:05:52;15.15;;;8.57;;
66727;SDS011;53641;44.274;19.890;2022-10-31T04:08:21;12.25;;;7.70;;
66727;SDS011;53641;44.274;19.890;2022-10-31T04:10:50;14.70;;;7.82;;
66727;SDS011;53641;44.274;19.890;2022-10-31T04:13:20;13.07;;;7.88;;
66727;SDS011;53641;44.274;19.890;2022-10-31T04:15:52;12.77;;;7.63;;
66727;SDS011;53641;44.274;19.890;2022-10-31T04:18:19;14.70;;;7.35;;
66727;SDS011;53641;44.274;19.890;2022-10-31T04:20:48;9.82;;;7.03;;
66727;SDS011;53641;44.274;19.890;2022-10-31T04:23:24;10.07;;;7.50;;
66727;SDS011;53641;44.274;19.890;2022-10-31T04:25:51;12.73;;;7.85;;
66727;SDS011;53641;44.274;19.890;2022-10-31T04:28:20;12.25;;;7.80;;
66727;SDS011;53641;44.274;19.890;2022-10-31T04:30:46;16.15;;;8.60;;
66727;SDS011;53641;44.274;19.890;2022-10-31T04:33:16;10.27;;;6.95;;
66727;SDS011;53641;44.274;19.890;2022-10-31T04:35:42;12.55;;;7.85;;
66727;SDS011;53641;44.274;19.890;2022-10-31T04:38:08;10.90;;;7.70;;
66727;SDS011;53641;44.274;19.890;2022-10-31T04:40:34;12.60;;;8.15;;
66727;SDS011;53641;44.274;19.890;2022-10-31T04:43:00;13.50;;;8.70;;
66727;SDS011;53641;44.274;19.890;2022-10-31T04:45:28;11.65;;;8.10;;
66727;SDS011;53641;44.274;19.890;2022-10-31T04:47:54;16.35;;;8.07;;
66727;SDS011;53641;44.274;19.890;2022-10-31T04:50:20;13.13;;;7.88;;
66727;SDS011;53641;44.274;19.890;2022-10-31T04:52:49;12.82;;;8.15;;
66727;SDS011;53641;44.274;19.890;2022-10-31T04:55:18;14.20;;;8.65;;
66727;SDS011;53641;44.274;19.890;2022-10-31T04:57:44;15.77;;;8.55;;
66727;SDS011;53641;44.274;19.890;2022-10-31T05:00:11;12.50;;;8.10;;
66727;SDS011;53641;44.274;19.890;2022-10-31T05:02:45;13.07;;;8.50;;
66727;SDS011;53641;44.274;19.890;2022-10-31T05:05:12;13.25;;;8.13;;
66727;SDS011;53641;44.274;19.890;2022-10-31T05:07:45;16.60;;;9.43;;
66727;SDS011;53641;44.274;19.890;2022-10-31T05:10:15;13.45;;;8.50;;
66727;SDS011;53641;44.274;19.890;2022-10-31T05:12:48;15.98;;;9.07;;
66727;SDS011;53641;44.274;19.890;2022-10-31T05:15:15;14.63;;;8.88;;
66727;SDS011;53641;44.274;19.890;2022-10-31T05:17:49;15.25;;;8.43;;
66727;SDS011;53641;44.274;19.890;2022-10-31T05:20:18;15.55;;;8.70;;
66727;SDS011;53641;44.274;19.890;2022-10-31T05:22:46;13.43;;;8.57;;
66727;SDS011;53641;44.274;19.890;2022-10-31T05:25:16;15.05;;;9.13;;
66727;SDS011;53641;44.274;19.890;2022-10-31T05:27:46;17.10;;;8.88;;
66727;SDS011;53641;44.274;19.890;2022-10-31T05:30:14;14.07;;;9.68;;
66727;SDS011;53641;44.274;19.890;2022-10-31T05:32:43;22.40;;;10.10;;
66727;SDS011;53641;44.274;19.890;2022-10-31T05:35:15;17.65;;;10.55;;
66727;SDS011;53641;44.274;19.890;2022-10-31T05:37:45;59.67;;;12.00;;
66727;SDS011;53641;44.274;19.890;2022-10-31T05:40:16;28.05;;;12.20;;
66727;SDS011;53641;44.274;19.890;2022-10-31T05:42:50;35.40;;;11.05;;
66727;SDS011;53641;44.274;19.890;2022-10-31T05:45:37;21.20;;;11.80;;
66727;SDS011;53641;44.274;19.890;2022-10-31T05:48:04;21.15;;;11.38;;
66727;SDS011;53641;44.274;19.890;2022-10-31T05:50:42;18.83;;;11.90;;
66727;SDS011;53641;44.274;19.890;2022-10-31T05:53:25;20.55;;;10.50;;
66727;SDS011;53641;44.274;19.890;2022-10-31T05:55:53;22.45;;;10.93;;
66727;SDS011;53641;44.274;19.890;2022-10-31T05:58:19;21.55;;;10.85;;
66727;SDS011;53641;44.274;19.890;2022-10-31T06:00:45;14.45;;;9.40;;
66727;SDS011;53641;44.274;19.890;2022-10-31T06:03:11;15.63;;;9.77;;
66727;SDS011;53641;44.274;19.890;2022-10-31T06:08:41;18.83;;;9.57;;
66727;SDS011;53641;44.274;19.890;2022-10-31T06:11:13;21.08;;;9.70;;
66727;SDS011;53641;44.274;19.890;2022-10-31T06:13:38;17.90;;;10.75;;
66727;SDS011;53641;44.274;19.890;2022-10-31T06:16:05;17.42;;;10.05;;
66727;SDS011;53641;44.274;19.890;2022-10-31T06:18:33;19.73;;;9.52;;
66727;SDS011;53641;44.274;19.890;2022-10-31T06:20:59;16.27;;;9.43;;
66727;SDS011;53641;44.274;19.890;2022-10-31T06:23:25;19.15;;;10.10;;
66727;SDS011;53641;44.274;19.890;2022-10-31T06:25:51;20.23;;;9.02;;
66727;SDS011;53641;44.274;19.890;2022-10-31T06:28:17;16.35;;;10.10;;
66727;SDS011;53641;44.274;19.890;2022-10-31T06:30:43;19.50;;;10.80;;
66727;SDS011;53641;44.274;19.890;2022-10-31T06:33:09;23.67;;;9.70;;
66727;SDS011;53641;44.274;19.890;2022-10-31T06:35:38;21.20;;;10.55;;
66727;SDS011;53641;44.274;19.890;2022-10-31T06:38:09;24.67;;;10.65;;
66727;SDS011;53641;44.274;19.890;2022-10-31T06:40:35;36.38;;;9.95;;
66727;SDS011;53641;44.274;19.890;2022-10-31T06:43:03;21.83;;;10.10;;
66727;SDS011;53641;44.274;19.890;2022-10-31T06:45:29;25.42;;;10.60;;
66727;SDS011;53641;44.274;19.890;2022-10-31T06:47:55;19.95;;;10.88;;
66727;SDS011;53641;44.274;19.890;2022-10-31T06:50:31;17.73;;;9.27;;
66727;SDS011;53641;44.274;19.890;2022-10-31T06:52:58;22.60;;;10.10;;
66727;SDS011;53641;44.274;19.890;2022-10-31T06:55:35;21.00;;;9.77;;
66727;SDS011;53641;44.274;19.890;2022-10-31T06:58:10;19.75;;;9.63;;
66727;SDS011;53641;44.274;19.890;2022-10-31T07:00:49;31.20;;;12.40;;
66727;SDS011;53641;44.274;19.890;2022-10-31T07:03:48;22.77;;;13.73;;
66727;SDS011;53641;44.274;19.890;2022-10-31T07:12:09;19.33;;;12.48;;
66727;SDS011;53641;44.274;19.890;2022-10-31T07:22:33;40.90;;;20.63;;
66727;SDS011;53641;44.274;19.890;2022-10-31T07:36:07;47.63;;;24.27;;
66727;SDS011;53641;44.274;19.890;2022-10-31T07:57:30;48.00;;;21.67;;
66727;SDS011;53641;44.274;19.890;2022-10-31T08:04:13;63.30;;;18.67;;
66727;SDS011;53641;44.274;19.890;2022-10-31T08:07:03;38.58;;;19.08;;
66727;SDS011;53641;44.274;19.890;2022-10-31T08:10:01;50.10;;;18.10;;
66727;SDS011;53641;44.274;19.890;2022-10-31T10:27:02;18.90;;;5.93;;
66727;SDS011;53641;44.274;19.890;2022-10-31T10:30:07;21.17;;;5.57;;
66727;SDS011;53641;44.274;19.890;2022-10-31T10:33:24;7.18;;;4.53;;
66727;SDS011;53641;44.274;19.890;2022-10-31T10:37:15;11.43;;;5.45;;
66727;SDS011;53641;44.274;19.890;2022-10-31T10:43:19;12.38;;;4.50;;
66727;SDS011;53641;44.274;19.890;2022-10-31T10:45:58;6.15;;;3.90;;
66727;SDS011;53641;44.274;19.890;2022-10-31T10:52:30;11.85;;;4.47;;
66727;SDS011;53641;44.274;19.890;2022-10-31T10:55:43;11.60;;;5.18;;
66727;SDS011;53641;44.274;19.890;2022-10-31T11:02:55;12.40;;;4.00;;
66727;SDS011;53641;44.274;19.890;2022-10-31T11:12:22;12.55;;;4.50;;
66727;SDS011;53641;44.274;19.890;2022-10-31T11:15:30;10.18;;;4.78;;
66727;SDS011;53641;44.274;19.890;2022-10-31T11:25:50;10.70;;;3.80;;
66727;SDS011;53641;44.274;19.890;2022-10-31T11:28:35;9.68;;;3.97;;
66727;SDS011;53641;44.274;19.890;2022-10-31T11:34:27;8.88;;;5.03;;
66727;SDS011;53641;44.274;19.890;2022-10-31T11:37:59;14.25;;;5.32;;
66727;SDS011;53641;44.274;19.890;2022-10-31T11:44:56;9.10;;;4.38;;
66727;SDS011;53641;44.274;19.890;2022-10-31T11:52:14;15.20;;;4.35;;
66727;SDS011;53641;44.274;19.890;2022-10-31T12:43:14;19.02;;;9.52;;
66727;SDS011;53641;44.274;19.890;2022-10-31T12:53:26;15.65;;;9.50;;
66727;SDS011;53641;44.274;19.890;2022-10-31T12:56:26;16.08;;;9.05;;
66727;SDS011;53641;44.274;19.890;2022-10-31T12:59:33;18.58;;;8.63;;
66727;SDS011;53641;44.274;19.890;2022-10-31T13:02:13;13.40;;;8.75;;
66727;SDS011;53641;44.274;19.890;2022-10-31T13:05:37;22.77;;;9.88;;
66727;SDS011;53641;44.274;19.890;2022-10-31T13:08:13;20.48;;;9.43;;
66727;SDS011;53641;44.274;19.890;2022-10-31T13:14:39;18.10;;;10.15;;
66727;SDS011;53641;44.274;19.890;2022-10-31T13:17:28;14.90;;;9.63;;
66727;SDS011;53641;44.274;19.890;2022-10-31T13:20:08;17.27;;;9.43;;
66727;SDS011;53641;44.274;19.890;2022-10-31T13:22:42;18.15;;;9.35;;
66727;SDS011;53641;44.274;19.890;2022-10-31T13:25:21;15.13;;;9.73;;
66727;SDS011;53641;44.274;19.890;2022-10-31T13:32:41;19.58;;;8.15;;
66727;SDS011;53641;44.274;19.890;2022-10-31T13:47:35;14.27;;;9.88;;
66727;SDS011;53641;44.274;19.890;2022-10-31T13:50:58;14.85;;;8.90;;
66727;SDS011;53641;44.274;19.890;2022-10-31T14:04:21;19.70;;;9.32;;
66727;SDS011;53641;44.274;19.890;2022-10-31T14:07:25;22.50;;;10.25;;
66727;SDS011;53641;44.274;19.890;2022-10-31T14:13:51;19.27;;;10.50;;
66727;SDS011;53641;44.274;19.890;2022-10-31T14:16:36;17.42;;;9.77;;
66727;SDS011;53641;44.274;19.890;2022-10-31T14:19:27;17.60;;;10.98;;
66727;SDS011;53641;44.274;19.890;2022-10-31T14:22:20;19.77;;;10.20;;
66727;SDS011;53641;44.274;19.890;2022-10-31T14:42:49;19.27;;;11.75;;
66727;SDS011;53641;44.274;19.890;2022-10-31T14:46:00;27.63;;;12.38;;
66727;SDS011;53641;44.274;19.890;2022-10-31T14:51:55;22.58;;;12.98;;
66727;SDS011;53641;44.274;19.890;2022-10-31T14:54:29;21.77;;;13.95;;
66727;SDS011;53641;44.274;19.890;2022-10-31T14:57:12;21.15;;;12.90;;
66727;SDS011;53641;44.274;19.890;2022-10-31T15:20:05;30.50;;;18.95;;
66727;SDS011;53641;44.274;19.890;2022-10-31T15:29:52;24.73;;;19.02;;
66727;SDS011;53641;44.274;19.890;2022-10-31T15:32:43;29.27;;;20.27;;
66727;SDS011;53641;44.274;19.890;2022-10-31T15:35:32;24.52;;;19.52;;
66727;SDS011;53641;44.274;19.890;2022-10-31T15:45:18;35.60;;;24.63;;
66727;SDS011;53641;44.274;19.890;2022-10-31T15:49:24;35.88;;;23.85;;
66727;SDS011;53641;44.274;19.890;2022-10-31T15:54:28;40.78;;;24.50;;
66727;SDS011;53641;44.274;19.890;2022-10-31T15:57:31;32.95;;;25.17;;
66727;SDS011;53641;44.274;19.890;2022-10-31T16:00:35;36.17;;;24.48;;
66727;SDS011;53641;44.274;19.890;2022-10-31T16:03:26;37.25;;;25.50;;
66727;SDS011;53641;44.274;19.890;2022-10-31T16:06:03;38.08;;;25.63;;
66727;SDS011;53641;44.274;19.890;2022-10-31T16:09:20;42.80;;;26.83;;
66727;SDS011;53641;44.274;19.890;2022-10-31T16:12:02;42.10;;;27.00;;
66727;SDS011;53641;44.274;19.890;2022-10-31T16:15:27;42.53;;;26.65;;
66727;SDS011;53641;44.274;19.890;2022-10-31T16:18:27;41.33;;;26.25;;
66727;SDS011;53641;44.274;19.890;2022-10-31T16:21:34;44.50;;;26.92;;
66727;SDS011;53641;44.274;19.890;2022-10-31T16:27:53;54.03;;;34.15;;
66727;SDS011;53641;44.274;19.890;2022-10-31T16:38:18;79.25;;;47.85;;
66727;SDS011;53641;44.274;19.890;2022-10-31T16:44:35;69.13;;;39.95;;
66727;SDS011;53641;44.274;19.890;2022-10-31T16:47:16;64.05;;;37.92;;
66727;SDS011;53641;44.274;19.890;2022-10-31T16:49:48;67.10;;;41.08;;
66727;SDS011;53641;44.274;19.890;2022-10-31T16:55:58;53.35;;;36.05;;
66727;SDS011;53641;44.274;19.890;2022-10-31T16:59:09;60.47;;;37.80;;
66727;SDS011;53641;44.274;19.890;2022-10-31T17:06:49;64.63;;;44.45;;
66727;SDS011;53641;44.274;19.890;2022-10-31T17:10:07;80.50;;;51.97;;
66727;SDS011;53641;44.274;19.890;2022-10-31T17:19:04;94.95;;;58.40;;
66727;SDS011;53641;44.274;19.890;2022-10-31T17:22:20;87.65;;;58.50;;
66727;SDS011;53641;44.274;19.890;2022-10-31T17:24:55;85.00;;;57.05;;
66727;SDS011;53641;44.274;19.890;2022-10-31T17:27:33;87.22;;;55.95;;
66727;SDS011;53641;44.274;19.890;2022-10-31T17:30:26;101.05;;;60.03;;
66727;SDS011;53641;44.274;19.890;2022-10-31T17:33:17;102.65;;;60.72;;
66727;SDS011;53641;44.274;19.890;2022-10-31T17:35:58;92.78;;;58.15;;
66727;SDS011;53641;44.274;19.890;2022-10-31T17:38:36;90.78;;;55.67;;
66727;SDS011;53641;44.274;19.890;2022-10-31T17:44:50;93.82;;;61.75;;
66727;SDS011;53641;44.274;19.890;2022-10-31T17:51:22;94.90;;;61.08;;
66727;SDS011;53641;44.274;19.890;2022-10-31T18:01:29;87.20;;;58.80;;
66727;SDS011;53641;44.274;19.890;2022-10-31T18:09:57;87.72;;;56.72;;
66727;SDS011;53641;44.274;19.890;2022-10-31T18:12:54;85.65;;;55.38;;
66727;SDS011;53641;44.274;19.890;2022-10-31T18:15:53;85.13;;;54.97;;
66727;SDS011;53641;44.274;19.890;2022-10-31T18:52:24;100.45;;;56.55;;
66727;SDS011;53641;44.274;19.890;2022-10-31T19:42:36;66.35;;;41.13;;
66727;SDS011;53641;44.274;19.890;2022-10-31T21:28:46;29.73;;;19.67;;
66727;SDS011;53641;44.274;19.890;2022-10-31T21:35:25;35.45;;;20.00;;
66727;SDS011;53641;44.274;19.890;2022-10-31T21:38:03;34.25;;;21.70;;
66727;SDS011;53641;44.274;19.890;2022-10-31T21:40:57;41.35;;;21.00;;
66727;SDS011;53641;44.274;19.890;2022-10-31T21:48:04;30.38;;;20.17;;
66727;SDS011;53641;44.274;19.890;2022-10-31T21:54:45;27.42;;;17.17;;
66727;SDS011;53641;44.274;19.890;2022-10-31T22:03:52;30.95;;;19.40;;
66727;SDS011;53641;44.274;19.890;2022-10-31T22:06:54;28.77;;;18.27;;
66727;SDS011;53641;44.274;19.890;2022-10-31T22:13:43;28.05;;;18.38;;
66727;SDS011;53641;44.274;19.890;2022-10-31T22:23:57;24.73;;;16.63;;
66727;SDS011;53641;44.274;19.890;2022-10-31T22:43:14;22.75;;;14.93;;
66727;SDS011;53641;44.274;19.890;2022-10-31T22:50:23;24.33;;;13.32;;
66727;SDS011;53641;44.274;19.890;2022-10-31T22:57:17;24.02;;;14.05;;
66727;SDS011;53641;44.274;19.890;2022-10-31T23:00:23;20.80;;;14.07;;
66727;SDS011;53641;44.274;19.890;2022-10-31T23:03:43;23.50;;;14.10;;
66727;SDS011;53641;44.274;19.890;2022-10-31T23:26:52;22.45;;;13.60;;
66727;SDS011;53641;44.274;19.890;2022-10-31T23:33:23;21.63;;;12.43;;
66727;SDS011;53641;44.274;19.890;2022-10-31T23:36:28;24.20;;;13.07;;
